createdAt,value
2022-08-09T00:00:18.237Z,15.84
2022-08-09T00:01:18.259Z,15.82
2022-08-09T00:02:18.198Z,15.84
2022-08-09T00:04:08.509Z,15.82
2022-08-09T00:04:34.801Z,15.84
2022-08-09T00:06:15.983Z,15.86
2022-08-09T00:06:23.107Z,15.86
2022-08-09T00:07:18.122Z,15.86
2022-08-09T00:08:31.536Z,15.86
2022-08-09T00:09:19.073Z,15.86
2022-08-09T00:10:21.473Z,15.88
2022-08-09T00:11:24.120Z,15.85
2022-08-09T00:12:22.726Z,15.85
2022-08-09T00:13:18.149Z,15.85
2022-08-09T00:14:21.910Z,15.84
2022-08-09T00:15:19.002Z,15.84
2022-08-09T00:16:18.003Z,15.84
2022-08-09T00:18:05.381Z,15.84
2022-08-09T00:18:18.974Z,15.82
2022-08-09T00:19:18.407Z,15.81
2022-08-09T00:20:17.946Z,15.81
2022-08-09T00:21:17.934Z,15.81
2022-08-09T00:22:18.150Z,15.82
2022-08-09T00:23:56.553Z,15.82
2022-08-09T00:24:18.894Z,15.84
2022-08-09T00:25:23.612Z,15.81
2022-08-09T00:26:18.875Z,15.82
2022-08-09T00:27:18.846Z,15.82
2022-08-09T00:28:17.826Z,15.82
2022-08-09T00:29:39.445Z,15.81
2022-08-09T00:30:26.030Z,15.76
2022-08-09T00:31:55.782Z,15.72
2022-08-09T00:32:25.744Z,15.66
2022-08-09T00:33:18.768Z,15.61
2022-08-09T00:34:19.252Z,15.54
2022-08-09T00:35:17.737Z,15.48
2022-08-09T00:36:17.758Z,15.45
2022-08-09T00:37:17.709Z,15.45
2022-08-09T00:38:21.478Z,15.43
2022-08-09T00:40:09.133Z,15.45
2022-08-09T00:40:19.708Z,15.43
2022-08-09T00:44:08.064Z,15.42
2022-08-09T00:44:13.226Z,15.39
2022-08-09T00:44:15.133Z,15.39
2022-08-09T00:44:26.899Z,15.41
2022-08-09T00:45:20.259Z,15.39
2022-08-09T00:46:28.313Z,15.39
2022-08-09T00:47:18.580Z,15.41
2022-08-09T00:48:19.393Z,15.42
2022-08-09T00:49:17.564Z,15.43
2022-08-09T00:50:17.560Z,15.41
2022-08-09T00:51:17.552Z,15.38
2022-08-09T00:52:17.968Z,15.33
2022-08-09T00:53:17.510Z,15.33
2022-08-09T00:54:18.501Z,15.33
2022-08-09T00:55:54.264Z,15.31
2022-08-09T00:56:18.481Z,15.27
2022-08-09T00:57:24.652Z,15.26
2022-08-09T00:58:22.178Z,15.28
2022-08-09T00:59:20.249Z,15.26
2022-08-09T01:00:21.952Z,15.24
2022-08-09T01:01:18.483Z,15.21
2022-08-09T01:02:17.403Z,15.23
2022-08-09T01:03:17.384Z,15.21
2022-08-09T01:04:17.380Z,15.20
2022-08-09T01:05:22.053Z,15.19
2022-08-09T01:06:18.696Z,15.19
2022-08-09T01:07:17.333Z,15.20
2022-08-09T01:08:17.326Z,15.17
2022-08-09T01:09:18.294Z,15.15
2022-08-09T01:10:17.305Z,15.13
2022-08-09T01:11:17.284Z,15.09
2022-08-09T01:12:17.274Z,15.08
2022-08-09T01:13:17.245Z,15.08
2022-08-09T01:14:18.292Z,15.06
2022-08-09T01:15:17.642Z,14.98
2022-08-09T01:16:17.228Z,14.93
2022-08-09T01:17:18.016Z,14.87
2022-08-09T01:18:17.177Z,14.86
2022-08-09T01:19:40.278Z,14.80
2022-08-09T01:20:18.154Z,14.80
2022-08-09T01:21:17.165Z,14.81
2022-08-09T01:22:17.134Z,14.81
2022-08-09T01:24:02.652Z,14.84
2022-08-09T01:24:18.136Z,14.86
2022-08-09T01:25:17.656Z,14.86
2022-08-09T01:26:17.077Z,14.83
2022-08-09T01:27:17.795Z,14.83
2022-08-09T01:28:17.058Z,14.80
2022-08-09T01:29:17.037Z,14.75
2022-08-09T01:30:28.696Z,14.74
2022-08-09T01:32:28.021Z,14.74
2022-08-09T01:32:33.476Z,14.71
2022-08-09T01:33:17.979Z,14.71
2022-08-09T01:34:16.979Z,14.71
2022-08-09T01:35:28.269Z,14.65
2022-08-09T01:36:17.947Z,14.67
2022-08-09T01:37:16.949Z,14.64
2022-08-09T01:38:17.927Z,14.60
2022-08-09T01:39:17.029Z,14.52
2022-08-09T01:40:22.990Z,14.47
2022-08-09T01:41:17.881Z,14.44
2022-08-09T01:42:16.906Z,14.42
2022-08-09T01:43:16.862Z,14.39
2022-08-09T01:44:16.840Z,14.37
2022-08-09T01:45:16.830Z,14.34
2022-08-09T01:46:18.334Z,14.29
2022-08-09T01:47:17.811Z,14.28
2022-08-09T01:48:16.782Z,14.25
2022-08-09T01:49:16.764Z,14.25
2022-08-09T01:50:17.146Z,14.24
2022-08-09T01:51:23.028Z,14.25
2022-08-09T01:52:17.755Z,14.25
2022-08-09T01:53:19.834Z,14.24
2022-08-09T01:54:16.711Z,14.21
2022-08-09T01:55:16.682Z,14.19
2022-08-09T01:56:16.696Z,14.17
2022-08-09T01:57:16.672Z,14.16
2022-08-09T01:58:16.672Z,14.19
2022-08-09T01:59:16.644Z,14.19
2022-08-09T02:00:34.543Z,14.17
2022-08-09T02:01:18.346Z,14.20
2022-08-09T02:02:16.648Z,14.21
2022-08-09T02:03:16.606Z,14.24
2022-08-09T02:04:16.584Z,14.25
2022-08-09T02:05:16.571Z,14.27
2022-08-09T02:06:16.547Z,14.21
2022-08-09T02:08:34.869Z,14.19
2022-08-09T02:08:38.948Z,14.19
2022-08-09T02:09:17.519Z,14.21
2022-08-09T02:10:16.499Z,14.21
2022-08-09T02:11:17.126Z,14.19
2022-08-09T02:12:18.047Z,14.17
2022-08-09T02:13:16.482Z,14.21
2022-08-09T02:14:26.593Z,14.21
2022-08-09T02:15:17.437Z,14.24
2022-08-09T02:16:16.417Z,14.25
2022-08-09T02:17:59.905Z,14.29
2022-08-09T02:18:17.418Z,14.32
2022-08-09T02:19:16.377Z,14.34
2022-08-09T02:20:25.071Z,14.37
2022-08-09T02:21:22.186Z,14.42
2022-08-09T02:22:17.358Z,14.43
2022-08-09T02:23:17.327Z,14.44
2022-08-09T02:24:25.781Z,14.44
2022-08-09T02:25:17.298Z,14.44
2022-08-09T02:26:25.117Z,14.44
2022-08-09T02:27:18.578Z,14.47
2022-08-09T02:28:17.897Z,14.47
2022-08-09T02:29:16.252Z,14.49
2022-08-09T02:30:16.239Z,14.53
2022-08-09T02:31:16.235Z,14.57
2022-08-09T02:32:16.209Z,14.64
2022-08-09T02:33:16.892Z,14.69
2022-08-09T02:34:25.731Z,14.75
2022-08-09T02:35:18.267Z,14.81
2022-08-09T02:36:16.159Z,14.87
2022-08-09T02:37:16.139Z,14.91
2022-08-09T02:38:27.842Z,14.95
2022-08-09T02:39:20.059Z,14.95
2022-08-09T02:40:24.789Z,14.99
2022-08-09T02:41:17.160Z,15.01
2022-08-09T02:42:16.086Z,15.05
2022-08-09T02:43:16.141Z,15.06
2022-08-09T02:44:25.574Z,15.08
2022-08-09T02:45:17.057Z,15.09
2022-08-09T02:46:16.070Z,15.09
2022-08-09T02:47:16.003Z,15.11
2022-08-09T02:48:19.617Z,15.13
2022-08-09T02:49:17.044Z,15.15
2022-08-09T02:50:15.972Z,15.19
2022-08-09T02:51:40.490Z,15.20
2022-08-09T02:52:16.060Z,15.21
2022-08-09T02:53:17.259Z,15.21
2022-08-09T02:54:16.972Z,15.20
2022-08-09T02:55:20.971Z,15.21
2022-08-09T02:56:16.885Z,15.21
2022-08-09T02:57:23.257Z,15.17
2022-08-09T02:58:32.424Z,15.13
2022-08-09T02:59:26.328Z,15.11
2022-08-09T03:00:25.655Z,15.08
2022-08-09T03:01:21.875Z,15.03
2022-08-09T03:02:17.978Z,15.02
2022-08-09T03:03:21.533Z,15.03
2022-08-09T03:04:19.812Z,15.03
2022-08-09T03:05:16.578Z,15.01
2022-08-09T03:06:15.754Z,15.03
2022-08-09T03:07:15.751Z,15.03
2022-08-09T03:08:15.736Z,15.03
2022-08-09T03:09:15.754Z,15.01
2022-08-09T03:10:15.719Z,14.99
2022-08-09T03:12:05.398Z,14.95
2022-08-09T03:12:16.707Z,14.95
2022-08-09T03:13:15.796Z,14.99
2022-08-09T03:14:15.938Z,14.99
2022-08-09T03:15:16.726Z,15.02
2022-08-09T03:16:15.637Z,15.01
2022-08-09T03:17:16.491Z,15.02
2022-08-09T03:18:16.599Z,15.05
2022-08-09T03:19:52.607Z,15.03
2022-08-09T03:20:16.580Z,15.03
2022-08-09T03:21:15.573Z,15.02
2022-08-09T03:22:24.882Z,15.01
2022-08-09T03:23:24.731Z,15.02
2022-08-09T03:24:25.996Z,15.02
2022-08-09T03:25:26.850Z,15.03
2022-08-09T03:26:16.574Z,15.03
2022-08-09T03:27:17.030Z,15.03
2022-08-09T03:28:15.469Z,15.05
2022-08-09T03:29:23.192Z,15.03
2022-08-09T03:30:29.616Z,15.02
2022-08-09T03:31:22.550Z,15.02
2022-08-09T03:32:16.420Z,15.01
2022-08-09T03:33:19.146Z,14.98
2022-08-09T03:34:15.401Z,14.98
2022-08-09T03:35:24.819Z,14.99
2022-08-09T03:36:17.348Z,14.99
2022-08-09T03:37:54.388Z,14.98
2022-08-09T03:38:29.182Z,14.98
2022-08-09T03:39:16.531Z,14.95
2022-08-09T03:40:17.848Z,14.94
2022-08-09T03:41:16.359Z,14.91
2022-08-09T03:42:15.291Z,14.90
2022-08-09T03:43:15.285Z,14.90
2022-08-09T03:44:15.646Z,14.88
2022-08-09T03:45:15.630Z,14.88
2022-08-09T03:46:20.784Z,14.90
2022-08-09T03:47:16.232Z,14.93
2022-08-09T03:48:18.976Z,14.90
2022-08-09T03:49:17.465Z,14.90
2022-08-09T04:03:00.196Z,14.80
2022-08-09T04:04:01.286Z,14.75
2022-08-09T04:05:00.660Z,14.72
2022-08-09T04:06:00.123Z,14.71
2022-08-09T04:07:00.102Z,14.71
2022-08-09T04:08:00.103Z,14.69
2022-08-09T04:09:00.076Z,14.69
2022-08-09T04:10:00.070Z,14.69
2022-08-09T04:11:01.706Z,14.71
2022-08-09T04:12:02.633Z,14.72
2022-08-09T04:13:01.108Z,14.74
2022-08-09T04:14:53.871Z,14.75
2022-08-09T04:15:11.433Z,14.75
2022-08-09T04:16:19.390Z,14.75
2022-08-09T04:17:01.713Z,14.80
2022-08-09T04:18:00.909Z,14.81
2022-08-09T04:18:59.933Z,14.83
2022-08-09T04:20:02.679Z,14.86
2022-08-09T04:20:59.932Z,14.81
2022-08-09T04:21:59.902Z,14.84
2022-08-09T04:22:59.884Z,14.80
2022-08-09T04:23:59.872Z,14.78
2022-08-09T04:24:59.861Z,14.80
2022-08-09T04:25:59.853Z,14.78
2022-08-09T04:26:59.833Z,14.74
2022-08-09T04:28:03.499Z,14.72
2022-08-09T04:29:03.703Z,14.72
2022-08-09T04:30:00.808Z,14.75
2022-08-09T04:30:59.804Z,14.75
2022-08-09T04:32:00.769Z,14.78
2022-08-09T04:32:59.744Z,14.78
2022-08-09T04:33:59.738Z,14.80
2022-08-09T04:35:01.318Z,14.80
2022-08-09T04:35:59.744Z,14.80
2022-08-09T04:36:59.685Z,14.80
2022-08-09T04:37:59.685Z,14.81
2022-08-09T04:38:59.664Z,14.80
2022-08-09T04:39:59.665Z,14.81
2022-08-09T04:40:59.654Z,14.81
2022-08-09T04:41:59.981Z,14.83
2022-08-09T04:42:59.626Z,14.81
2022-08-09T04:44:06.289Z,14.81
2022-08-09T04:45:00.586Z,14.84
2022-08-09T04:45:59.598Z,14.86
2022-08-09T04:47:05.714Z,14.88
2022-08-09T04:48:03.045Z,14.91
2022-08-09T04:48:59.530Z,14.91
2022-08-09T04:49:59.518Z,14.93
2022-08-09T04:50:59.510Z,14.94
2022-08-09T04:51:59.583Z,14.94
2022-08-09T04:52:59.477Z,14.94
2022-08-09T04:53:59.493Z,14.95
2022-08-09T04:54:59.510Z,14.95
2022-08-09T04:55:59.710Z,14.99
2022-08-09T04:57:01.272Z,14.99
2022-08-09T04:58:01.796Z,15.02
2022-08-09T04:59:03.702Z,15.05
2022-08-09T05:00:00.387Z,15.06
2022-08-09T05:00:59.388Z,15.08
2022-08-09T05:02:03.036Z,15.09
2022-08-09T05:02:59.339Z,15.12
2022-08-09T05:04:00.361Z,15.13
2022-08-09T05:05:09.891Z,15.15
2022-08-09T05:06:06.479Z,15.17
2022-08-09T05:07:00.429Z,15.19
2022-08-09T05:07:59.289Z,15.21
2022-08-09T05:09:00.882Z,15.24
2022-08-09T05:09:59.262Z,15.24
2022-08-09T05:11:01.147Z,15.27
2022-08-09T05:12:02.163Z,15.30
2022-08-09T05:12:59.228Z,15.33
2022-08-09T05:13:59.203Z,15.35
2022-08-09T05:14:59.203Z,15.36
2022-08-09T05:15:59.199Z,15.41
2022-08-09T05:16:59.731Z,15.45
2022-08-09T05:18:50.658Z,15.48
2022-08-09T05:19:00.762Z,15.51
2022-08-09T05:19:59.126Z,15.54
2022-08-09T05:20:59.121Z,15.57
2022-08-09T05:21:59.159Z,15.60
2022-08-09T05:23:55.480Z,15.63
2022-08-09T05:24:01.952Z,15.67
2022-08-09T05:25:00.874Z,15.70
2022-08-09T05:25:59.057Z,15.75
2022-08-09T05:26:59.024Z,15.79
2022-08-09T05:27:59.016Z,15.81
2022-08-09T05:28:59.014Z,15.85
2022-08-09T05:29:59.133Z,15.88
2022-08-09T05:30:58.985Z,15.92
2022-08-09T05:31:58.963Z,15.94
2022-08-09T05:32:58.964Z,15.99
2022-08-09T05:33:58.954Z,16.00
2022-08-09T05:34:58.915Z,16.03
2022-08-09T05:35:58.928Z,16.03
2022-08-09T05:36:58.918Z,16.04
2022-08-09T05:37:58.895Z,16.07
2022-08-09T05:38:58.859Z,16.09
2022-08-09T05:39:58.918Z,16.14
2022-08-09T05:40:58.855Z,16.16
2022-08-09T05:42:01.716Z,16.18
2022-08-09T05:42:59.818Z,16.22
2022-08-09T05:43:58.807Z,16.25
2022-08-09T05:44:58.787Z,16.27
2022-08-09T05:45:58.796Z,16.33
2022-08-09T05:46:58.766Z,16.37
2022-08-09T05:48:01.168Z,16.38
2022-08-09T05:48:59.303Z,16.40
2022-08-09T05:50:30.248Z,16.38
2022-08-09T05:51:16.965Z,16.40
2022-08-09T05:51:59.716Z,16.42
2022-08-09T05:52:58.679Z,16.44
2022-08-09T05:53:58.671Z,16.44
2022-08-09T05:55:03.088Z,16.48
2022-08-09T05:56:01.645Z,16.53
2022-08-09T05:56:58.671Z,16.55
2022-08-09T05:57:58.783Z,16.58
2022-08-09T05:58:59.097Z,16.62
2022-08-09T05:59:58.640Z,16.65
2022-08-09T06:00:58.594Z,16.68
2022-08-09T06:01:58.941Z,16.70
2022-08-09T06:02:58.802Z,16.74
2022-08-09T06:03:58.923Z,16.77
2022-08-09T06:04:58.536Z,16.80
2022-08-09T06:06:06.095Z,16.85
2022-08-09T06:06:59.512Z,16.88
2022-08-09T06:08:05.427Z,16.90
2022-08-09T06:08:59.482Z,16.93
2022-08-09T06:10:02.419Z,17.00
2022-08-09T06:10:59.203Z,17.03
2022-08-09T06:11:58.442Z,17.07
2022-08-09T06:13:11.788Z,17.10
2022-08-09T06:13:59.422Z,17.13
2022-08-09T06:15:01.230Z,17.18
2022-08-09T06:15:58.392Z,17.23
2022-08-09T06:16:58.408Z,17.29
2022-08-09T06:17:58.364Z,17.35
2022-08-09T06:18:58.343Z,17.40
2022-08-09T06:19:58.356Z,17.41
2022-08-09T06:20:58.695Z,17.47
2022-08-09T06:21:59.097Z,17.53
2022-08-09T06:22:58.316Z,17.55
2022-08-09T06:24:02.596Z,17.62
2022-08-09T06:24:58.278Z,17.66
2022-08-09T06:25:58.275Z,17.71
2022-08-09T06:26:58.262Z,17.76
2022-08-09T06:27:58.237Z,17.81
2022-08-09T06:29:00.148Z,17.84
2022-08-09T06:30:08.760Z,17.89
2022-08-09T06:30:59.230Z,17.94
2022-08-09T06:32:08.343Z,18.00
2022-08-09T06:33:29.978Z,18.03
2022-08-09T06:33:59.164Z,18.07
2022-08-09T06:34:58.137Z,18.12
2022-08-09T06:35:58.561Z,18.18
2022-08-09T06:36:59.807Z,18.21
2022-08-09T06:38:06.723Z,18.25
2022-08-09T06:38:59.086Z,18.29
2022-08-09T06:40:01.295Z,18.36
2022-08-09T06:40:59.096Z,18.39
2022-08-09T06:42:08.549Z,18.42
2022-08-09T06:42:59.036Z,18.47
2022-08-09T06:43:58.020Z,18.50
2022-08-09T06:44:57.998Z,18.57
2022-08-09T06:46:05.939Z,18.61
2022-08-09T06:46:58.968Z,18.65
2022-08-09T06:48:01.411Z,18.70
2022-08-09T06:49:00.223Z,18.74
2022-08-09T06:50:13.689Z,18.79
2022-08-09T06:50:58.982Z,18.82
2022-08-09T06:51:57.921Z,18.87
2022-08-09T06:52:57.902Z,18.90
2022-08-09T06:53:59.694Z,18.94
2022-08-09T06:54:57.905Z,18.97
2022-08-09T06:55:57.903Z,18.99
2022-08-09T06:56:57.842Z,19.06
2022-08-09T06:58:02.483Z,19.10
2022-08-09T07:00:49.991Z,19.17
2022-08-09T07:00:50.473Z,19.14
2022-08-09T07:00:59.879Z,19.18
2022-08-09T07:02:03.450Z,19.24
2022-08-09T07:02:58.766Z,19.29
2022-08-09T07:04:03.701Z,19.32
2022-08-09T07:04:58.763Z,19.38
2022-08-09T07:06:02.962Z,19.42
2022-08-09T07:06:59.951Z,19.48
2022-08-09T07:08:00.742Z,19.50
2022-08-09T07:08:57.685Z,19.55
2022-08-09T07:10:11.500Z,19.58
2022-08-09T07:10:58.676Z,19.65
2022-08-09T07:11:57.654Z,19.68
2022-08-09T07:12:58.340Z,19.72
2022-08-09T07:14:05.516Z,19.73
2022-08-09T07:14:58.638Z,19.78
2022-08-09T07:16:41.669Z,19.83
2022-08-09T07:16:58.698Z,19.88
2022-08-09T07:18:02.399Z,19.91
2022-08-09T07:18:58.557Z,19.98
2022-08-09T07:19:57.548Z,20.02
2022-08-09T07:20:57.540Z,20.06
2022-08-09T07:21:59.025Z,20.10
2022-08-09T07:22:57.863Z,20.15
2022-08-09T07:23:58.345Z,20.20
2022-08-09T07:24:57.479Z,20.23
2022-08-09T07:26:02.653Z,20.27
2022-08-09T07:26:58.449Z,20.30
2022-08-09T07:27:57.429Z,20.34
2022-08-09T07:29:08.289Z,20.38
2022-08-09T07:29:58.746Z,20.41
2022-08-09T07:30:57.418Z,20.46
2022-08-09T07:31:57.370Z,20.49
2022-08-09T07:32:57.380Z,20.50
2022-08-09T07:33:57.368Z,20.54
2022-08-09T07:34:57.349Z,20.59
2022-08-09T07:35:57.329Z,20.64
2022-08-09T07:36:57.322Z,20.69
2022-08-09T07:37:59.498Z,20.74
2022-08-09T07:39:01.041Z,20.77
2022-08-09T07:39:58.344Z,20.81
2022-08-09T07:41:11.399Z,20.84
2022-08-09T07:41:58.245Z,20.90
2022-08-09T07:42:57.256Z,20.93
2022-08-09T07:43:57.234Z,20.98
2022-08-09T07:45:01.369Z,21.04
2022-08-09T07:46:02.039Z,21.06
2022-08-09T07:46:58.212Z,21.09
2022-08-09T07:48:01.745Z,21.11
2022-08-09T07:48:59.556Z,21.16
2022-08-09T07:50:08.345Z,21.19
2022-08-09T07:51:09.441Z,21.26
2022-08-09T07:52:06.260Z,21.32
2022-08-09T07:53:02.317Z,21.39
2022-08-09T07:54:06.829Z,21.44
2022-08-09T07:54:58.097Z,21.50
2022-08-09T07:56:06.008Z,21.54
2022-08-09T07:56:58.577Z,21.59
2022-08-09T07:57:57.025Z,21.63
2022-08-09T07:58:57.037Z,21.67
2022-08-09T08:00:02.955Z,21.71
2022-08-09T08:01:05.938Z,21.75
2022-08-09T08:01:58.069Z,21.79
2022-08-09T08:02:56.998Z,21.82
2022-08-09T08:03:56.958Z,21.85
2022-08-09T08:04:56.967Z,21.92
2022-08-09T08:05:57.818Z,21.95
2022-08-09T08:07:00.313Z,21.99
2022-08-09T08:08:43.660Z,22.01
2022-08-09T08:09:03.549Z,22.07
2022-08-09T08:10:07.848Z,22.12
2022-08-09T08:11:15.411Z,22.16
2022-08-09T08:12:24.493Z,22.20
2022-08-09T08:12:57.851Z,22.23
2022-08-09T08:13:57.643Z,22.28
2022-08-09T08:14:57.023Z,22.31
2022-08-09T08:15:56.829Z,22.35
2022-08-09T08:17:00.696Z,22.38
2022-08-09T08:17:58.123Z,22.43
2022-08-09T08:18:56.785Z,22.47
2022-08-09T08:19:56.762Z,22.50
2022-08-09T08:20:56.776Z,22.56
2022-08-09T08:21:56.772Z,22.60
2022-08-09T08:23:01.334Z,22.68
2022-08-09T08:24:01.447Z,22.74
2022-08-09T08:24:57.714Z,22.78
2022-08-09T08:26:08.026Z,22.84
2022-08-09T08:26:57.701Z,22.87
2022-08-09T08:27:56.673Z,22.93
2022-08-09T08:28:56.645Z,22.97
2022-08-09T08:29:56.647Z,23.02
2022-08-09T08:30:56.642Z,23.07
2022-08-09T08:32:04.116Z,23.09
2022-08-09T08:32:57.614Z,23.14
2022-08-09T08:33:56.576Z,23.19
2022-08-09T08:34:59.010Z,23.22
2022-08-09T08:35:59.143Z,23.29
2022-08-09T08:36:56.584Z,23.34
2022-08-09T08:38:04.905Z,23.39
2022-08-09T08:38:57.532Z,23.46
2022-08-09T08:39:56.554Z,23.53
2022-08-09T08:40:56.511Z,23.57
2022-08-09T08:41:58.967Z,23.62
2022-08-09T08:42:58.301Z,23.68
2022-08-09T08:44:00.587Z,23.75
2022-08-09T08:44:57.438Z,23.77
2022-08-09T08:46:04.111Z,23.82
2022-08-09T08:47:02.349Z,23.86
2022-08-09T08:47:59.059Z,23.92
2022-08-09T08:48:56.379Z,23.97
2022-08-09T08:49:56.359Z,24.01
2022-08-09T08:50:57.411Z,24.07
2022-08-09T08:52:00.219Z,24.14
2022-08-09T08:53:00.261Z,24.19
2022-08-09T08:54:04.376Z,24.22
2022-08-09T08:54:57.319Z,24.29
2022-08-09T08:55:56.311Z,24.34
2022-08-09T08:56:56.301Z,24.39
2022-08-09T08:57:58.310Z,24.44
2022-08-09T08:58:56.273Z,24.49
2022-08-09T08:59:57.375Z,24.54
2022-08-09T09:00:56.624Z,24.60
2022-08-09T09:01:57.528Z,24.67
2022-08-09T09:02:56.264Z,24.71
2022-08-09T09:03:56.265Z,24.79
2022-08-09T09:04:56.183Z,24.83
2022-08-09T09:06:00.149Z,24.90
2022-08-09T09:06:57.151Z,24.94
2022-08-09T09:07:56.155Z,24.98
2022-08-09T09:08:59.677Z,25.02
2022-08-09T09:10:02.091Z,25.07
2022-08-09T09:10:57.105Z,25.12
2022-08-09T09:11:56.099Z,25.17
2022-08-09T09:12:56.120Z,25.20
2022-08-09T09:13:58.443Z,25.25
2022-08-09T09:14:56.051Z,25.32
2022-08-09T09:15:56.029Z,25.37
2022-08-09T09:16:56.018Z,25.39
2022-08-09T09:17:56.015Z,25.43
2022-08-09T09:19:15.667Z,25.47
2022-08-09T09:19:56.990Z,25.50
2022-08-09T09:20:55.977Z,25.54
2022-08-09T09:21:55.968Z,25.56
2022-08-09T09:22:55.948Z,25.61
2022-08-09T09:23:58.125Z,25.65
2022-08-09T09:26:00.407Z,25.68
2022-08-09T09:26:03.275Z,25.72
2022-08-09T09:26:56.899Z,25.77
2022-08-09T09:28:06.117Z,25.83
2022-08-09T09:29:04.525Z,25.87
2022-08-09T09:30:27.472Z,25.93
2022-08-09T09:30:57.308Z,25.99
2022-08-09T09:32:03.416Z,26.05
2022-08-09T09:32:56.811Z,26.12
2022-08-09T09:33:56.968Z,26.21
2022-08-09T09:34:55.781Z,26.27
2022-08-09T09:36:00.862Z,26.32
2022-08-09T09:36:56.752Z,26.36
2022-08-09T09:37:55.740Z,26.40
2022-08-09T09:38:55.746Z,26.43
2022-08-09T09:39:57.159Z,26.46
2022-08-09T09:40:55.724Z,26.52
2022-08-09T09:41:55.714Z,26.57
2022-08-09T09:42:55.691Z,26.62
2022-08-09T09:44:12.989Z,26.68
2022-08-09T09:44:56.668Z,26.76
2022-08-09T09:46:38.852Z,26.81
2022-08-09T09:46:56.630Z,26.87
2022-08-09T10:03:34.355Z,27.53
2022-08-09T10:04:34.299Z,27.61
2022-08-09T10:06:04.104Z,27.66
2022-08-09T10:06:35.281Z,27.69
2022-08-09T10:07:34.446Z,27.69
2022-08-09T10:08:43.209Z,27.67
2022-08-09T10:09:35.214Z,27.73
2022-08-09T10:10:34.331Z,27.73
2022-08-09T10:12:00.528Z,27.74
2022-08-09T10:12:35.184Z,27.79
2022-08-09T10:13:45.217Z,27.85
2022-08-09T10:14:35.172Z,27.89
2022-08-09T10:16:08.754Z,27.94
2022-08-09T10:16:57.313Z,27.98
2022-08-09T10:17:51.489Z,28.06
2022-08-09T10:18:35.094Z,28.09
2022-08-09T10:19:34.094Z,28.11
2022-08-09T10:20:37.266Z,28.14
2022-08-09T10:21:35.105Z,28.14
2022-08-09T10:22:34.480Z,28.19
2022-08-09T10:23:34.035Z,28.22
2022-08-09T10:24:35.554Z,28.26
2022-08-09T10:25:34.712Z,28.31
2022-08-09T10:26:35.017Z,28.33
2022-08-09T10:27:34.748Z,28.38
2022-08-09T10:28:34.978Z,28.41
2022-08-09T10:30:43.581Z,28.47
2022-08-09T10:32:40.062Z,28.68
2022-08-09T10:34:09.005Z,28.73
2022-08-09T10:34:36.077Z,28.82
2022-08-09T10:35:33.888Z,28.91
2022-08-09T10:36:33.892Z,28.97
2022-08-09T10:37:33.870Z,29.01
2022-08-09T10:38:56.937Z,29.06
2022-08-09T10:39:40.856Z,29.07
2022-08-09T10:40:37.705Z,29.08
2022-08-09T10:41:34.822Z,29.11
2022-08-09T10:42:34.111Z,29.13
2022-08-09T10:43:36.183Z,29.13
2022-08-09T10:44:34.785Z,29.18
2022-08-09T10:45:35.334Z,29.22
2022-08-09T10:46:33.760Z,29.26
2022-08-09T10:48:19.619Z,29.34
2022-08-09T10:48:36.283Z,29.37
2022-08-09T10:49:50.229Z,29.41
2022-08-09T10:50:34.712Z,29.49
2022-08-09T10:51:41.024Z,29.49
2022-08-09T10:52:34.903Z,29.49
2022-08-09T10:53:38.109Z,29.49
2022-08-09T10:54:34.655Z,29.53
2022-08-09T10:55:35.851Z,29.49
2022-08-09T10:56:34.636Z,29.50
2022-08-09T10:57:33.813Z,29.52
2022-08-09T10:58:34.894Z,29.59
2022-08-09T10:59:55.528Z,29.68
2022-08-09T11:00:34.576Z,29.78
2022-08-09T11:03:14.671Z,29.89
2022-08-09T11:03:14.819Z,29.86
2022-08-09T11:03:49.660Z,29.92
2022-08-09T11:04:34.589Z,29.97
2022-08-09T11:05:33.543Z,30.02
2022-08-09T11:06:33.509Z,30.07
2022-08-09T11:07:57.122Z,30.14
2022-08-09T11:08:34.489Z,30.19
2022-08-09T11:09:37.234Z,30.23
2022-08-09T11:10:33.460Z,30.30
2022-08-09T11:11:33.439Z,30.33
2022-08-09T11:12:34.819Z,30.36
2022-08-09T11:13:54.158Z,30.46
2022-08-09T11:14:34.413Z,30.50
2022-08-09T11:15:34.143Z,30.49
2022-08-09T11:16:35.026Z,30.53
2022-08-09T11:17:33.372Z,30.59
2022-08-09T11:18:34.352Z,30.62
2022-08-09T11:20:07.929Z,30.67
2022-08-09T11:20:34.327Z,30.72
2022-08-09T11:21:33.771Z,30.78
2022-08-09T11:22:33.344Z,30.87
2022-08-09T11:23:33.419Z,30.86
2022-08-09T11:24:33.292Z,30.93
2022-08-09T11:25:45.648Z,31.02
2022-08-09T11:26:34.270Z,31.08
2022-08-09T11:28:05.275Z,31.15
2022-08-09T11:28:38.344Z,31.21
2022-08-09T11:30:05.647Z,31.31
2022-08-09T11:30:35.916Z,31.36
2022-08-09T11:31:34.221Z,31.45
2022-08-09T11:32:33.488Z,31.57
2022-08-09T11:33:33.168Z,31.61
2022-08-09T11:34:33.368Z,31.72
2022-08-09T11:35:35.147Z,31.77
2022-08-09T11:36:35.888Z,31.88
2022-08-09T11:37:41.546Z,32.02
2022-08-09T11:38:34.863Z,32.15
2022-08-09T11:39:38.033Z,32.32
2022-08-09T11:40:34.069Z,32.33
2022-08-09T11:41:38.362Z,32.39
2022-08-09T11:42:34.463Z,32.43
2022-08-09T11:43:33.120Z,32.54
2022-08-09T11:44:33.031Z,32.62
2022-08-09T11:45:37.895Z,32.70
2022-08-09T11:46:34.009Z,32.77
2022-08-09T11:47:32.985Z,32.88
2022-08-09T11:48:32.985Z,32.91
2022-08-09T11:49:42.553Z,32.92
2022-08-09T11:50:56.945Z,32.95
2022-08-09T11:53:11.448Z,33.03
2022-08-09T11:53:55.122Z,32.93
2022-08-09T11:54:00.550Z,33.08
2022-08-09T11:54:35.033Z,33.11
2022-08-09T11:55:39.972Z,33.19
2022-08-09T11:56:41.690Z,33.22
2022-08-09T11:57:47.801Z,33.31
2022-08-09T11:58:34.017Z,33.42
2022-08-09T11:59:33.641Z,33.46
2022-08-09T12:00:32.819Z,33.58
2022-08-09T12:02:17.752Z,33.63
2022-08-09T12:02:37.558Z,33.71
2022-08-09T12:03:56.725Z,33.71
2022-08-09T12:04:37.198Z,33.79
2022-08-09T12:05:37.643Z,33.94
2022-08-09T12:06:35.085Z,34.05
2022-08-09T12:07:41.581Z,34.04
2022-08-09T12:08:33.718Z,34.05
2022-08-09T12:09:33.895Z,34.23
2022-08-09T12:10:39.695Z,34.34
2022-08-09T12:11:37.918Z,34.42
2022-08-09T12:12:33.649Z,34.58
2022-08-09T12:14:09.153Z,34.76
2022-08-09T12:14:40.487Z,34.94
2022-08-09T12:15:49.635Z,35.13
2022-08-09T12:16:38.329Z,35.21
2022-08-09T12:17:41.503Z,35.26
2022-08-09T12:18:33.841Z,35.35
2022-08-09T12:19:32.565Z,35.37
2022-08-09T12:20:32.553Z,35.35
2022-08-09T12:21:38.703Z,35.35
2022-08-09T12:22:33.670Z,35.42
2022-08-09T12:23:56.200Z,35.47
2022-08-09T12:24:33.513Z,35.52
2022-08-09T12:25:37.339Z,35.54
2022-08-09T12:26:33.474Z,35.55
2022-08-09T12:29:11.904Z,35.57
2022-08-09T12:29:14.955Z,35.67
2022-08-09T12:29:44.687Z,35.79
2022-08-09T12:30:37.070Z,35.81
2022-08-09T12:32:03.273Z,35.84
2022-08-09T12:32:34.249Z,35.86
2022-08-09T12:33:51.466Z,35.93
2022-08-09T12:34:33.386Z,35.92
2022-08-09T12:35:37.797Z,35.70
2022-08-09T12:36:33.588Z,35.58
2022-08-09T12:37:32.387Z,35.55
2022-08-09T12:38:38.177Z,35.58
2022-08-09T12:39:33.432Z,35.69
2022-08-09T12:40:32.307Z,35.73
2022-08-09T12:41:38.254Z,35.81
2022-08-09T12:42:33.474Z,35.82
2022-08-09T12:44:05.980Z,35.73
2022-08-09T12:44:37.521Z,35.89
2022-08-09T12:45:38.627Z,36.12
2022-08-09T12:46:33.231Z,36.26
2022-08-09T12:47:37.089Z,36.49
2022-08-09T12:48:33.206Z,36.79
2022-08-09T12:49:32.202Z,37.12
2022-08-09T12:50:32.185Z,37.41
2022-08-09T12:52:00.345Z,37.74
2022-08-09T12:52:44.216Z,37.96
2022-08-09T12:53:37.739Z,38.26
2022-08-09T12:54:33.158Z,38.70
2022-08-09T12:56:15.023Z,39.18
2022-08-09T12:56:48.595Z,39.52
2022-08-09T12:57:33.095Z,39.77
2022-08-09T12:58:33.075Z,40.04
2022-08-09T12:59:58.014Z,40.30
2022-08-09T13:00:33.066Z,40.56
2022-08-09T13:01:32.105Z,40.88
2022-08-09T13:02:32.254Z,41.09
2022-08-09T13:03:53.471Z,41.28
2022-08-09T13:04:38.037Z,41.41
2022-08-09T13:05:35.594Z,41.41
2022-08-09T13:06:33.943Z,41.44
2022-08-09T13:07:51.246Z,41.68
2022-08-09T13:08:40.091Z,41.90
2022-08-09T13:09:32.969Z,42.03
2022-08-09T13:10:34.767Z,41.70
2022-08-09T13:11:31.919Z,41.66
2022-08-09T13:12:32.377Z,41.82
2022-08-09T13:14:11.812Z,41.59
2022-08-09T13:14:40.761Z,41.62
2022-08-09T13:15:33.989Z,41.55
2022-08-09T13:16:31.857Z,41.61
2022-08-09T13:18:03.430Z,41.70
2022-08-09T13:18:32.831Z,41.85
2022-08-09T13:20:06.505Z,41.56
2022-08-09T13:20:37.495Z,41.56
2022-08-09T13:22:36.093Z,41.59
2022-08-09T13:22:37.548Z,41.28